METAR Data
IDs: Format: Raw Decoded Include TAF

Data at: 1158 UTC 07 Oct 2022

LBWN 071130Z 03010G20KT 350V090 CAVOK 23/05 Q1024 NOSIG